Time;durP1;ratioP1;P1;durP2;ratioP2;P2;SDS_P1;SDS_P2;PMS_P1;PMS_P2;Temp;Humidity;BMP_temperature;BMP_pressure;BME280_temperature;BME280_humidity;BME280_pressure;Samples;Min_cycle;Max_cycle;Signal;HPM_P1;HPM_P2
2023/03/30 00:02:17;;;;;;;6.20;4.95;;;15.30;81.30;;;;;;10790734;33;20283;-75
2023/03/30 00:08:19;;;;;;;8.63;6.97;;;15.30;80.70;;;;;;10837144;32;20036;-75
2023/03/30 00:14:30;;;;;;;7.47;5.55;;;15.10;81.00;;;;;;10789735;33;20433;-75
2023/03/30 00:20:32;;;;;;;8.90;7.05;;;15.00;81.20;;;;;;10789123;33;20042;-75
2023/03/30 00:26:34;;;;;;;11.05;6.10;;;15.00;81.30;;;;;;10788700;33;20390;-75
2023/03/30 00:32:36;;;;;;;7.82;4.82;;;15.00;81.10;;;;;;10789434;33;20047;-75
2023/03/30 00:38:39;;;;;;;12.10;9.10;;;15.00;81.10;;;;;;10788625;33;20024;-75
2023/03/30 00:45:08;;;;;;;10.18;7.78;;;14.90;81.00;;;;;;10839146;32;20047;-75
2023/03/30 00:51:11;;;;;;;10.25;8.07;;;14.80;81.00;;;;;;10864499;32;20018;-75
2023/03/30 00:57:13;;;;;;;13.95;9.50;;;14.80;80.90;;;;;;10980466;32;20052;-75
2023/03/30 01:03:26;;;;;;;10.10;7.03;;;14.70;80.90;;;;;;10977570;32;20041;-75
2023/03/30 01:09:29;;;;;;;15.68;9.27;;;14.70;81.20;;;;;;10966235;32;20061;-75
2023/03/30 01:15:37;;;;;;;12.55;7.03;;;14.70;81.40;;;;;;10980037;32;20019;-75
2023/03/30 01:22:00;;;;;;;9.15;6.00;;;14.60;81.40;;;;;;10979389;32;20015;-75
2023/03/30 01:28:53;;;;;;;8.57;6.53;;;14.70;81.40;;;;;;10975546;32;20049;-75
2023/03/30 01:34:58;;;;;;;9.23;5.53;;;14.70;81.50;;;;;;10826750;32;20059;-75
2023/03/30 01:41:29;;;;;;;11.40;9.82;;;14.60;81.40;;;;;;10833237;32;20027;-75
2023/03/30 01:47:54;;;;;;;7.87;6.10;;;14.70;81.60;;;;;;10828671;32;20050;-75
2023/03/30 01:54:08;;;;;;;12.65;8.68;;;14.60;81.30;;;;;;10818432;32;20425;-75
2023/03/30 02:00:14;;;;;;;7.20;5.97;;;14.60;81.60;;;;;;10832910;32;20024;-75
2023/03/30 02:06:29;;;;;;;10.52;7.07;;;14.70;81.50;;;;;;10832325;32;20085;-76
2023/03/30 02:12:32;;;;;;;19.17;9.45;;;14.70;81.30;;;;;;10986064;32;20028;-75
2023/03/30 02:18:37;;;;;;;13.88;10.98;;;14.60;81.00;;;;;;10982423;32;20447;-75
2023/03/30 02:24:39;;;;;;;12.25;10.98;;;14.60;81.00;;;;;;10985070;32;20002;-75
2023/03/30 02:30:44;;;;;;;18.25;9.95;;;14.60;80.20;;;;;;10984188;32;20026;-75
2023/03/30 02:37:00;;;;;;;13.05;9.60;;;14.60;80.20;;;;;;10957675;32;20397;-75
2023/03/30 02:43:29;;;;;;;10.57;7.87;;;14.50;80.00;;;;;;10968610;32;20022;-75
2023/03/30 02:49:52;;;;;;;10.82;8.13;;;14.50;79.80;;;;;;10943603;32;20020;-75
2023/03/30 02:56:11;;;;;;;13.68;10.63;;;14.50;80.40;;;;;;10791622;33;20029;-75
2023/03/30 03:02:29;;;;;;;14.52;10.93;;;14.50;80.60;;;;;;10853750;32;20020;-75
2023/03/30 03:08:38;;;;;;;11.82;9.45;;;14.40;80.20;;;;;;10842077;32;20050;-75
2023/03/30 03:14:42;;;;;;;;;;;14.30;80.10;;;;;;10842450;32;20017;-75
2023/03/30 03:20:44;;;;;;;14.57;10.13;;;14.20;80.20;;;;;;10790320;33;19924;-75
2023/03/30 03:26:46;;;;;;;13.00;10.02;;;14.20;80.10;;;;;;10791311;33;20028;-75
2023/03/30 03:32:50;;;;;;;15.57;10.45;;;14.10;79.80;;;;;;10841468;32;20042;-75
2023/03/30 03:38:52;;;;;;;11.52;9.07;;;14.20;79.60;;;;;;10840718;32;20039;-75
2023/03/30 03:44:54;;;;;;;10.05;7.00;;;14.20;79.40;;;;;;10839879;32;20009;-75
2023/03/30 03:50:57;;;;;;;11.43;8.07;;;14.10;79.00;;;;;;10855420;32;20034;-75
2023/03/30 03:57:00;;;;;;;8.32;6.37;;;14.20;78.90;;;;;;10964539;32;20026;-75
2023/03/30 04:03:03;;;;;;;15.43;8.38;;;14.30;78.20;;;;;;10982176;32;20384;-75
2023/03/30 04:09:06;;;;;;;13.50;8.30;;;14.40;78.20;;;;;;10981862;32;20392;-75
2023/03/30 04:15:09;;;;;;;11.63;9.85;;;14.50;78.20;;;;;;10981715;32;20184;-76
2023/03/30 04:21:12;;;;;;;8.38;5.85;;;14.40;78.10;;;;;;10980957;32;20015;-75
2023/03/30 04:27:15;;;;;;;9.50;6.37;;;14.50;78.20;;;;;;10965960;32;20030;-75
2023/03/30 04:33:18;;;;;;;10.88;7.20;;;14.40;78.20;;;;;;10981182;32;20100;-75
2023/03/30 04:39:20;;;;;;;14.45;8.85;;;14.30;78.00;;;;;;10980906;32;20054;-75
2023/03/30 04:45:23;;;;;;;16.62;7.30;;;14.30;77.90;;;;;;10979460;32;20022;-75
2023/03/30 04:51:26;;;;;;;9.15;6.18;;;14.30;78.00;;;;;;10979473;32;20026;-75
2023/03/30 04:57:30;;;;;;;10.30;6.35;;;14.30;78.00;;;;;;10966682;32;20045;-75
2023/03/30 05:03:33;;;;;;;8.98;6.70;;;14.30;78.00;;;;;;10979158;32;20023;-75
2023/03/30 05:09:37;;;;;;;8.30;6.28;;;14.20;78.40;;;;;;10978730;32;20014;-75
2023/03/30 05:15:40;;;;;;;12.45;8.68;;;14.30;78.30;;;;;;10980228;32;20034;-75
2023/03/30 05:21:43;;;;;;;12.90;9.02;;;14.30;78.30;;;;;;10980099;32;20424;-75
2023/03/30 05:27:46;;;;;;;10.70;7.35;;;14.60;78.80;;;;;;10979201;32;20053;-75
2023/03/30 05:33:50;;;;;;;10.35;6.87;;;14.70;78.50;;;;;;10964587;32;20309;-75
2023/03/30 05:39:53;;;;;;;11.50;9.38;;;14.60;78.50;;;;;;10980382;32;20014;-75
2023/03/30 05:45:56;;;;;;;12.05;9.85;;;14.70;78.30;;;;;;10966668;32;20385;-75
2023/03/30 05:51:59;;;;;;;10.70;9.55;;;14.70;78.40;;;;;;10978832;32;20069;-75
2023/03/30 05:58:02;;;;;;;11.45;10.13;;;14.70;78.30;;;;;;10977695;32;20336;-76
2023/03/30 06:04:06;;;;;;;11.05;8.63;;;14.90;78.30;;;;;;10975325;32;20169;-75
2023/03/30 06:10:11;;;;;;;11.52;8.57;;;14.90;78.40;;;;;;10966384;32;20404;-75
2023/03/30 06:16:14;;;;;;;18.77;8.30;;;15.10;78.40;;;;;;10974835;32;20053;-75
2023/03/30 06:22:16;;;;;;;11.63;9.10;;;15.20;79.40;;;;;;10979930;32;20356;-76
2023/03/30 06:28:21;;;;;;;8.82;7.45;;;15.30;80.00;;;;;;10985560;32;20316;-75
2023/03/30 06:34:23;;;;;;;11.63;8.77;;;15.20;80.70;;;;;;10984656;32;20038;-75
2023/03/30 06:40:26;;;;;;;10.73;6.05;;;15.20;81.20;;;;;;10972398;32;20419;-75
2023/03/30 06:46:28;;;;;;;10.10;7.20;;;15.30;81.00;;;;;;10983755;32;20054;-75
2023/03/30 06:52:34;;;;;;;11.45;8.45;;;15.50;81.40;;;;;;10983714;32;20026;-75
2023/03/30 06:58:37;;;;;;;10.55;7.82;;;15.60;81.80;;;;;;10985233;32;20380;-76
2023/03/30 07:04:41;;;;;;;8.05;5.97;;;15.50;82.10;;;;;;10984078;32;20026;-76
2023/03/30 07:10:46;;;;;;;7.68;5.53;;;15.50;82.90;;;;;;10967801;32;20023;-75
2023/03/30 07:16:49;;;;;;;8.85;7.45;;;15.50;82.90;;;;;;10982718;32;20044;-76
2023/03/30 07:22:52;;;;;;;10.90;7.43;;;15.50;82.80;;;;;;10968534;32;20038;-76
2023/03/30 07:28:55;;;;;;;12.02;9.23;;;15.40;82.40;;;;;;10970052;32;20145;-75
2023/03/30 07:34:58;;;;;;;9.32;6.37;;;15.20;83.10;;;;;;10982967;32;20092;-75
2023/03/30 07:41:04;;;;;;;10.80;8.32;;;15.40;82.80;;;;;;10982240;32;20026;-75
2023/03/30 07:47:07;;;;;;;11.52;7.78;;;15.30;82.90;;;;;;10977386;32;20030;-76
2023/03/30 07:53:10;;;;;;;10.80;7.40;;;15.40;83.40;;;;;;10857652;27;20039;-76
2023/03/30 07:59:13;;;;;;;10.07;6.10;;;15.30;83.40;;;;;;10827232;33;20317;-76
2023/03/30 08:05:16;;;;;;;9.77;6.05;;;15.30;83.70;;;;;;10824394;33;20302;-76
2023/03/30 08:11:20;;;;;;;8.52;5.72;;;15.20;83.90;;;;;;10813908;33;20063;-75
2023/03/30 08:17:23;;;;;;;11.05;8.02;;;15.30;84.20;;;;;;10811319;33;20314;-75
2023/03/30 08:23:25;;;;;;;7.93;5.75;;;15.40;84.50;;;;;;10821040;33;20100;-75
2023/03/30 08:29:30;;;;;;;8.68;6.75;;;15.40;84.30;;;;;;10813061;33;20046;-75
2023/03/30 08:35:32;;;;;;;8.65;4.97;;;15.50;84.40;;;;;;10811327;33;20074;-75
2023/03/30 08:42:11;;;;;;;7.78;5.32;;;15.50;84.60;;;;;;10811576;33;20307;-75
2023/03/30 08:48:20;;;;;;;13.50;7.33;;;15.70;84.30;;;;;;10825101;32;20032;-75
2023/03/30 08:54:24;;;;;;;9.60;5.80;;;15.60;83.60;;;;;;10824511;33;20024;-75
2023/03/30 09:00:40;;;;;;;6.65;4.50;;;15.50;83.80;;;;;;10825664;33;20012;-75
2023/03/30 09:07:08;;;;;;;12.18;5.82;;;15.60;84.00;;;;;;10824663;33;20023;-75
2023/03/30 09:13:15;;;;;;;7.18;4.62;;;15.60;83.30;;;;;;10812641;33;20057;-75
2023/03/30 09:19:26;;;;;;;10.23;5.03;;;15.60;83.90;;;;;;10823952;33;20020;-75
2023/03/30 09:25:48;;;;;;;7.65;4.68;;;15.70;83.80;;;;;;10809866;33;20024;-75
2023/03/30 09:32:02;;;;;;;6.53;4.03;;;15.60;83.50;;;;;;10809320;33;20067;-75
2023/03/30 09:38:08;;;;;;;9.55;5.40;;;15.80;83.80;;;;;;10805846;33;20028;-75
2023/03/30 09:44:45;;;;;;;8.25;4.90;;;15.80;82.90;;;;;;10824522;33;20440;-75
2023/03/30 09:50:47;;;;;;;5.22;3.45;;;15.90;83.20;;;;;;10850101;32;20350;-75
2023/03/30 09:56:53;;;;;;;8.30;3.95;;;16.00;83.50;;;;;;10863434;32;20155;-75
2023/03/30 10:03:04;;;;;;;10.73;5.68;;;16.10;83.80;;;;;;10869661;32;20020;-75
2023/03/30 10:09:10;;;;;;;6.57;4.80;;;16.20;83.70;;;;;;10867977;32;20303;-75
2023/03/30 10:15:19;;;;;;;14.90;4.62;;;16.20;83.50;;;;;;10868612;32;20027;-75
2023/03/30 10:21:26;;;;;;;8.80;4.10;;;16.20;83.50;;;;;;10852933;32;20374;-75
2023/03/30 10:27:44;;;;;;;6.07;3.87;;;16.20;83.50;;;;;;10830874;32;20390;-75
2023/03/30 10:33:47;;;;;;;4.82;3.53;;;16.30;83.50;;;;;;10816263;32;20451;-75
2023/03/30 10:39:51;;;;;;;8.75;4.97;;;16.30;82.90;;;;;;10826405;33;20055;-75
2023/03/30 10:45:56;;;;;;;4.57;3.37;;;16.40;83.50;;;;;;10829304;33;20347;-75
2023/03/30 10:52:15;;;;;;;11.48;4.30;;;16.60;83.80;;;;;;10828048;33;20031;-75
2023/03/30 10:58:20;;;;;;;;;;;16.80;83.90;;;;;;10824732;33;20015;-75
2023/03/30 11:04:51;;;;;;;8.60;5.20;;;16.90;83.00;;;;;;10828403;33;20225;-75
2023/03/30 11:10:57;;;;;;;6.85;4.32;;;16.50;83.20;;;;;;10828058;32;20032;-75
2023/03/30 11:17:09;;;;;;;6.10;3.33;;;16.60;84.70;;;;;;10822537;33;20032;-75
2023/03/30 11:23:22;;;;;;;8.80;4.07;;;16.90;84.60;;;;;;10814791;33;20008;-75
2023/03/30 11:29:47;;;;;;;7.03;3.95;;;17.10;84.40;;;;;;10827980;33;20024;-75
2023/03/30 11:36:12;;;;;;;6.40;4.32;;;17.30;84.00;;;;;;10809199;33;20432;-75
2023/03/30 11:42:22;;;;;;;7.28;3.90;;;17.30;84.20;;;;;;10824484;33;20028;-75
2023/03/30 11:48:51;;;;;;;10.07;5.40;;;17.50;84.70;;;;;;10828193;33;20043;-76
2023/03/30 11:55:14;;;;;;;6.28;5.32;;;17.40;83.40;;;;;;10808135;33;20070;-75
2023/03/30 12:01:28;;;;;;;19.00;6.00;;;17.30;82.40;;;;;;10826412;33;20023;-75
2023/03/30 12:07:33;;;;;;;6.47;4.53;;;17.20;82.40;;;;;;10822174;33;20082;-75
2023/03/30 12:13:35;;;;;;;7.37;4.60;;;17.10;83.30;;;;;;10812315;33;20036;-75
2023/03/30 12:19:51;;;;;;;5.65;4.10;;;17.20;83.40;;;;;;10825886;32;20296;-75
2023/03/30 12:26:27;;;;;;;8.85;5.18;;;17.20;83.90;;;;;;10825564;33;20055;-75
2023/03/30 12:32:33;;;;;;;9.30;5.45;;;17.30;84.60;;;;;;10799047;33;20389;-75
2023/03/30 12:38:45;;;;;;;7.72;5.18;;;17.20;84.60;;;;;;10786367;33;20033;-75
2023/03/30 12:44:54;;;;;;;13.85;6.18;;;17.10;84.30;;;;;;10788695;33;20020;-75
2023/03/30 12:51:21;;;;;;;11.40;7.93;;;17.10;84.80;;;;;;10807009;33;20037;-75
2023/03/30 12:57:48;;;;;;;9.55;5.50;;;17.20;84.40;;;;;;10824456;33;20024;-75
2023/03/30 13:03:53;;;;;;;11.68;7.15;;;17.30;84.50;;;;;;10820512;33;20050;-75
2023/03/30 13:09:57;;;;;;;9.60;7.00;;;17.30;84.40;;;;;;10811627;32;20028;-75
2023/03/30 13:15:59;;;;;;;13.20;7.12;;;17.30;84.00;;;;;;10824727;33;20024;-75
2023/03/30 13:22:11;;;;;;;9.07;6.45;;;17.10;83.70;;;;;;10825097;33;20016;-75
2023/03/30 13:28:53;;;;;;;8.60;7.00;;;17.10;84.10;;;;;;10808938;33;20040;-75
2023/03/30 13:35:01;;;;;;;13.27;6.03;;;17.00;83.90;;;;;;10827300;32;20024;-75
2023/03/30 13:41:03;;;;;;;6.53;5.15;;;16.90;84.60;;;;;;10813883;33;20050;-75
2023/03/30 13:47:27;;;;;;;8.48;6.40;;;17.10;84.60;;;;;;10830042;33;20032;-75
2023/03/30 13:53:45;;;;;;;9.77;6.62;;;16.90;83.50;;;;;;10813740;32;20054;-75
2023/03/30 13:59:58;;;;;;;10.30;4.53;;;17.00;83.80;;;;;;10826823;33;20412;-75
2023/03/30 14:06:27;;;;;;;7.75;6.30;;;17.20;83.70;;;;;;10826195;33;20044;-75
2023/03/30 14:12:31;;;;;;;9.55;5.05;;;17.30;83.30;;;;;;10812651;32;20067;-75
2023/03/30 14:18:34;;;;;;;8.90;7.07;;;17.50;83.60;;;;;;10800631;33;20028;-75
2023/03/30 14:24:37;;;;;;;11.27;7.80;;;17.80;83.00;;;;;;10813658;33;20382;-75
2023/03/30 14:30:48;;;;;;;8.18;5.97;;;18.00;83.00;;;;;;10826276;33;20382;-75
2023/03/30 14:36:52;;;;;;;12.32;8.77;;;18.40;82.60;;;;;;10826502;33;20047;-75
2023/03/30 14:42:55;;;;;;;13.80;10.32;;;18.90;81.10;;;;;;10825608;33;20047;-75
2023/03/30 14:48:57;;;;;;;11.77;6.82;;;19.10;81.30;;;;;;10801132;32;20028;-75
2023/03/30 14:54:59;;;;;;;11.63;7.25;;;19.20;80.50;;;;;;10791185;33;20093;-75
2023/03/30 15:01:06;;;;;;;14.85;5.18;;;19.00;81.10;;;;;;10792009;33;20488;-75
2023/03/30 15:07:13;;;;;;;8.32;5.57;;;19.00;81.50;;;;;;10791322;33;20021;-75
2023/03/30 15:13:27;;;;;;;7.68;4.55;;;18.90;81.70;;;;;;10792264;32;20398;-75
2023/03/30 15:19:32;;;;;;;9.90;6.07;;;18.70;82.00;;;;;;10791159;33;20051;-75
2023/03/30 15:25:35;;;;;;;9.35;5.80;;;18.50;82.30;;;;;;10792274;33;20020;-75
2023/03/30 15:31:37;;;;;;;6.57;4.45;;;18.30;82.30;;;;;;10789756;33;20045;-75
2023/03/30 15:38:00;;;;;;;13.25;6.65;;;18.10;82.80;;;;;;10790526;33;20382;-75
2023/03/30 15:44:15;;;;;;;8.05;5.22;;;18.20;83.00;;;;;;10790457;33;20038;-75
2023/03/30 15:54:45;;;;;;;8.03;5.93;;;18.10;82.60;;;;;;10744050;32;8570280;-74
2023/03/30 16:00:47;;;;;;;8.02;5.50;;;18.30;82.60;;;;;;11012909;32;20507;-74
2023/03/30 16:06:51;;;;;;;9.48;5.72;;;18.20;82.60;;;;;;11012386;32;20359;-74
2023/03/30 16:12:56;;;;;;;10.25;7.15;;;18.00;82.70;;;;;;11008308;32;20123;-74
2023/03/30 16:18:58;;;;;;;14.10;5.62;;;17.90;83.00;;;;;;11008065;32;20030;-74
2023/03/30 16:25:00;;;;;;;9.00;5.43;;;17.80;83.10;;;;;;11011795;32;20011;-74
2023/03/30 16:31:22;;;;;;;11.23;7.18;;;17.80;83.10;;;;;;11012094;32;20258;-74
2023/03/30 16:37:24;;;;;;;8.95;5.68;;;17.50;82.50;;;;;;11011375;32;20018;-74
2023/03/30 16:43:26;;;;;;;12.90;8.73;;;17.50;83.40;;;;;;11011560;32;20014;-74
2023/03/30 16:49:29;;;;;;;12.20;8.68;;;17.60;83.40;;;;;;11007702;32;20062;-74
2023/03/30 16:55:32;;;;;;;8.10;5.80;;;17.50;83.10;;;;;;11011456;32;20019;-74
2023/03/30 17:01:34;;;;;;;9.43;5.50;;;17.80;83.30;;;;;;11002202;32;20023;-74
2023/03/30 17:07:37;;;;;;;11.40;5.22;;;17.90;82.80;;;;;;10985350;32;20015;-74
2023/03/30 17:13:40;;;;;;;11.30;5.20;;;17.60;83.00;;;;;;10984163;32;20131;-75
2023/03/30 17:19:42;;;;;;;10.80;5.93;;;17.50;83.10;;;;;;10982618;32;20034;-74
2023/03/30 17:25:45;;;;;;;7.15;4.72;;;17.40;83.40;;;;;;10981958;32;20027;-74
2023/03/30 17:31:48;;;;;;;12.90;7.85;;;17.30;83.40;;;;;;10984454;32;20308;-74
2023/03/30 17:37:51;;;;;;;9.13;6.45;;;17.30;83.60;;;;;;10984446;32;20368;-74
2023/03/30 17:43:53;;;;;;;7.57;5.45;;;17.60;83.40;;;;;;10984730;32;20015;-74
2023/03/30 17:49:56;;;;;;;9.73;6.45;;;17.60;83.10;;;;;;10968025;32;20057;-74
2023/03/30 17:55:58;;;;;;;9.40;6.68;;;17.60;82.90;;;;;;10969030;32;20049;-74
2023/03/30 18:02:00;;;;;;;11.30;6.60;;;17.70;82.90;;;;;;10981336;32;20030;-74
2023/03/30 18:08:03;;;;;;;9.43;5.35;;;17.70;83.00;;;;;;10982771;32;20391;-74
2023/03/30 18:14:05;;;;;;;8.70;5.55;;;17.60;82.90;;;;;;10982709;32;20417;-74
2023/03/30 18:20:15;;;;;;;7.90;5.65;;;17.60;83.20;;;;;;10981881;32;20400;-74
2023/03/30 18:26:18;;;;;;;11.38;8.63;;;17.60;83.40;;;;;;10980919;32;20575;-74
2023/03/30 18:32:20;;;;;;;14.98;8.30;;;17.70;83.30;;;;;;10982552;32;20045;-74
2023/03/30 18:38:24;;;;;;;9.52;7.65;;;17.70;83.40;;;;;;10977743;32;20023;-74
2023/03/30 18:44:26;;;;;;;8.45;6.68;;;17.60;83.10;;;;;;10981313;32;20015;-74
2023/03/30 18:50:35;;;;;;;12.30;7.32;;;17.60;82.80;;;;;;10980808;32;20057;-74
2023/03/30 18:56:38;;;;;;;11.38;7.93;;;17.50;83.10;;;;;;10980739;32;20042;-74
2023/03/30 19:02:40;;;;;;;9.15;5.97;;;17.50;83.10;;;;;;10980916;32;20015;-74
2023/03/30 19:08:42;;;;;;;9.63;5.80;;;17.40;82.90;;;;;;10981156;32;20061;-74
2023/03/30 19:14:44;;;;;;;10.20;6.28;;;17.30;83.10;;;;;;10966013;32;20035;-73
2023/03/30 19:20:49;;;;;;;7.35;5.50;;;17.30;83.10;;;;;;10980343;32;20015;-74
2023/03/30 19:26:51;;;;;;;8.68;6.00;;;17.30;83.10;;;;;;10980477;32;20389;-73
2023/03/30 19:32:56;;;;;;;10.75;5.87;;;17.40;83.40;;;;;;10980197;32;20045;-74
2023/03/30 19:38:58;;;;;;;10.50;6.40;;;17.40;83.50;;;;;;10979437;32;20392;-74
2023/03/30 19:45:01;;;;;;;7.70;5.80;;;17.40;83.40;;;;;;10977590;32;20392;-74
2023/03/30 19:51:04;;;;;;;10.75;7.30;;;17.30;83.50;;;;;;10975490;32;20041;-74
2023/03/30 19:57:07;;;;;;;11.18;7.25;;;17.30;83.30;;;;;;10979214;32;20407;-74
2023/03/30 20:03:11;;;;;;;14.90;10.38;;;17.30;83.20;;;;;;10979012;32;20081;-73
2023/03/30 20:09:13;;;;;;;11.12;6.97;;;17.10;83.00;;;;;;10979882;32;20011;-73
2023/03/30 20:15:16;;;;;;;12.60;9.63;;;16.70;83.30;;;;;;10978942;32;20019;-73
2023/03/30 20:21:23;;;;;;;14.35;10.20;;;16.70;83.70;;;;;;10979339;32;20415;-74
2023/03/30 20:27:25;;;;;;;12.50;8.85;;;16.60;82.80;;;;;;10979384;32;20023;-74
2023/03/30 20:33:27;;;;;;;11.52;8.80;;;16.50;83.40;;;;;;10975262;32;20431;-73
2023/03/30 20:39:29;;;;;;;11.32;8.63;;;16.70;83.50;;;;;;10968991;32;20392;-74
2023/03/30 20:45:33;;;;;;;15.65;10.80;;;16.80;83.20;;;;;;10980720;32;20025;-73
2023/03/30 20:51:36;;;;;;;9.32;8.07;;;16.80;83.50;;;;;;10983788;32;20026;-74
2023/03/30 20:57:38;;;;;;;20.65;12.98;;;16.50;83.50;;;;;;10985470;32;20019;-74
2023/03/30 21:03:43;;;;;;;13.62;9.18;;;16.60;83.50;;;;;;10969756;32;20053;-74
2023/03/30 21:09:46;;;;;;;14.77;11.90;;;16.40;83.60;;;;;;10959468;32;20049;-74
2023/03/30 21:15:55;;;;;;;15.40;10.15;;;16.50;83.60;;;;;;10946464;32;20023;-74
2023/03/30 21:21:59;;;;;;;11.35;7.57;;;16.30;83.60;;;;;;10948093;32;20033;-74
2023/03/30 21:28:01;;;;;;;9.40;7.50;;;16.30;84.00;;;;;;10947161;32;20062;-74
2023/03/30 21:34:03;;;;;;;16.27;9.05;;;16.40;84.20;;;;;;10946922;32;20104;-74
2023/03/30 21:40:07;;;;;;;11.80;10.10;;;16.50;84.20;;;;;;10945877;32;20019;-74
2023/03/30 21:46:11;;;;;;;14.35;6.68;;;16.40;84.10;;;;;;10946396;32;20328;-74
2023/03/30 21:52:13;;;;;;;11.20;8.43;;;16.40;84.20;;;;;;10945367;32;20322;-74
2023/03/30 21:58:15;;;;;;;10.98;7.85;;;16.30;84.40;;;;;;10965602;32;20388;-74
2023/03/30 22:04:18;;;;;;;8.77;6.50;;;16.30;84.40;;;;;;10945934;32;20377;-74
2023/03/30 22:10:20;;;;;;;9.95;8.23;;;16.40;84.50;;;;;;10941628;32;20380;-73
2023/03/30 22:16:31;;;;;;;10.80;8.48;;;16.40;84.30;;;;;;10945124;32;20015;-74
2023/03/30 22:22:34;;;;;;;7.80;6.03;;;16.40;84.10;;;;;;10944833;32;20419;-73
2023/03/30 22:28:46;;;;;;;12.73;8.57;;;16.40;84.00;;;;;;10945077;32;20006;-74
2023/03/30 22:34:48;;;;;;;10.55;7.57;;;16.50;83.70;;;;;;10940495;32;20050;-74
2023/03/30 22:41:00;;;;;;;8.73;6.03;;;16.20;83.10;;;;;;10943460;32;20427;-74
2023/03/30 22:47:02;;;;;;;9.35;6.90;;;16.20;83.70;;;;;;10944251;32;20037;-73
2023/03/30 22:53:04;;;;;;;10.45;7.32;;;16.20;83.60;;;;;;10941567;32;20035;-73
2023/03/30 22:59:05;;;;;;;8.48;6.25;;;16.30;83.70;;;;;;10928520;32;20321;-73
2023/03/30 23:05:08;;;;;;;8.95;7.28;;;16.30;83.40;;;;;;10943707;32;20016;-73
2023/03/30 23:11:12;;;;;;;10.02;6.70;;;16.40;83.40;;;;;;10942916;32;20015;-73
2023/03/30 23:17:14;;;;;;;10.20;7.85;;;16.40;83.30;;;;;;10940291;32;20023;-74
2023/03/30 23:23:16;;;;;;;10.48;7.30;;;16.40;83.10;;;;;;10942626;32;20007;-73
2023/03/30 23:29:18;;;;;;;12.45;8.60;;;16.30;83.30;;;;;;10942990;32;20393;-74
2023/03/30 23:35:20;;;;;;;7.78;6.90;;;16.20;83.40;;;;;;10942706;32;20019;-74
2023/03/30 23:41:22;;;;;;;14.20;11.57;;;16.20;83.60;;;;;;10938188;32;20345;-74
2023/03/30 23:47:26;;;;;;;8.35;6.45;;;16.20;83.50;;;;;;10940079;32;20317;-74
2023/03/30 23:53:27;;;;;;;14.82;11.55;;;16.10;84.00;;;;;;10791324;27;20065;-74
2023/03/30 23:59:29;;;;;;;11.98;8.30;;;16.10;84.30;;;;;;10738217;32;20063;-73
